Terminal Aerodrome Forecast
Issued by NWS Charleston, WV

Home | Current Version | Previous Version | Text Only | Print | Product List | Glossary On
Versions: 1 2 3 4 5 6 7 8 9 10 11 12 13 14 15 16 17 18 19 20 21 22 23 24
000
FTUS41 KRLX 312322
TAFCRW
TAF
KCRW 312322Z 0100/0124 VRB04KT P6SM SCT040
     FM010300 00000KT 4SM HZ SCT040
     FM010800 00000KT 1/4SM FG VV001
     FM011200 00000KT 3SM BR FEW040
     FM011300 VRB04KT P6SM SCT040=

USA.gov is the U.S. government's official web portal to all federal, state and local government web resources and services.